Great Harwood, United Kingdom
Current Conditions -  °F | °C
As of 4:20 PM on Sunday 25 Jan 2015 (Local Time) from EGNH Reporting Station
Haze Haze  
Wind Chill: 39°   Ceiling: 100
Heat Index: 46°   Visibility: 2.5mi
Dew Point: 45°   Wind: 17mph
Humidity: 93%   Direction: 230°SW
Pressure: 30.21"   Gusts: NA
Location:  53.79°N, 2.41°W
Report Text: EGNH 251620Z 23015KT 4000 HZ BKN001 08/07 Q1023
Loading
Personal Weather Stations






























Interactive Weather Map New forecast layout! Learn more

10-Day Weather Forecast

Advertisements
Track Severe Weather on mobile